Time;durP1;ratioP1;P1;durP2;ratioP2;P2;SDS_P1;SDS_P2;PMS_P1;PMS_P2;Temp;Humidity;BMP_temperature;BMP_pressure;BME280_temperature;BME280_humidity;BME280_pressure;Samples;Min_cycle;Max_cycle;Signal;HPM_P1;HPM_P2
2021/09/05 00:00:01;;;;;;;18.37;12.63;;;11.90;99.90;;;;;;5074068;28;20219;-62
2021/09/05 00:02:29;;;;;;;17.87;12.63;;;11.90;99.90;;;;;;5074131;28;20225;-63
2021/09/05 00:04:57;;;;;;;16.10;12.93;;;11.80;99.90;;;;;;5073915;28;20235;-62
2021/09/05 00:07:25;;;;;;;15.73;12.23;;;11.90;99.90;;;;;;5074011;28;20563;-63
2021/09/05 00:09:52;;;;;;;15.30;11.90;;;11.80;99.90;;;;;;5073592;28;20254;-62
2021/09/05 00:12:20;;;;;;;18.10;14.53;;;11.80;99.90;;;;;;5073654;28;20952;-63
2021/09/05 00:14:48;;;;;;;15.53;13.13;;;11.80;99.90;;;;;;5073455;28;20625;-64
2021/09/05 00:17:17;;;;;;;18.10;12.80;;;11.80;99.90;;;;;;5073503;28;20660;-63
2021/09/05 00:19:45;;;;;;;17.27;12.73;;;11.80;99.90;;;;;;5072791;28;20205;-63
2021/09/05 00:22:13;;;;;;;15.03;12.90;;;11.80;99.90;;;;;;5073590;28;20312;-62
2021/09/05 00:24:41;;;;;;;15.83;12.30;;;11.80;99.90;;;;;;5073446;28;20295;-63
2021/09/05 00:27:09;;;;;;;15.63;12.00;;;11.80;99.90;;;;;;5073664;28;20228;-62
2021/09/05 00:29:37;;;;;;;17.23;12.00;;;11.80;99.90;;;;;;5073510;28;20228;-65
2021/09/05 00:32:05;;;;;;;16.65;11.82;;;11.80;99.90;;;;;;5073553;28;20279;-70
2021/09/05 00:34:34;;;;;;;15.77;12.70;;;11.70;99.90;;;;;;5073258;28;20355;-70
2021/09/05 00:37:02;;;;;;;14.50;11.50;;;11.70;99.90;;;;;;5073045;28;20292;-70
2021/09/05 00:39:30;;;;;;;15.67;12.87;;;11.70;99.90;;;;;;5073032;28;20203;-70
2021/09/05 00:41:59;;;;;;;14.97;12.07;;;11.60;99.90;;;;;;5073017;28;20221;-70
2021/09/05 00:44:27;;;;;;;17.17;12.13;;;11.60;99.90;;;;;;5073220;28;20308;-70
2021/09/05 00:46:54;;;;;;;18.07;12.20;;;11.50;99.90;;;;;;5073346;28;20230;-71
2021/09/05 00:49:22;;;;;;;15.23;11.23;;;11.40;99.90;;;;;;5073270;28;20199;-70
2021/09/05 00:51:53;;;;;;;14.47;12.33;;;11.40;99.90;;;;;;5073057;28;20376;-70
2021/09/05 00:54:22;;;;;;;18.03;12.80;;;11.40;99.90;;;;;;5072915;28;20199;-70
2021/09/05 00:56:49;;;;;;;16.10;12.17;;;11.40;99.90;;;;;;5073120;28;20203;-71
2021/09/05 00:59:19;;;;;;;16.27;12.57;;;11.40;99.90;;;;;;5073005;28;20295;-70
2021/09/05 01:01:47;;;;;;;14.87;12.03;;;11.30;99.90;;;;;;5072718;28;20707;-69
2021/09/05 01:04:16;;;;;;;16.53;13.07;;;11.40;99.90;;;;;;5073008;28;20296;-69
2021/09/05 01:06:44;;;;;;;15.30;12.20;;;11.40;99.90;;;;;;5072884;28;20207;-70
2021/09/05 01:09:13;;;;;;;15.10;12.10;;;11.40;99.90;;;;;;5072661;28;20231;-69
2021/09/05 01:11:41;;;;;;;15.67;11.57;;;11.40;99.90;;;;;;5072811;28;20284;-69
2021/09/05 01:14:10;;;;;;;15.97;11.50;;;11.40;99.90;;;;;;5072695;28;20211;-70
2021/09/05 01:16:40;;;;;;;14.53;12.47;;;11.30;99.90;;;;;;5072807;28;20287;-70
2021/09/05 01:19:11;;;;;;;17.33;12.77;;;11.40;99.90;;;;;;5072876;28;20188;-69
2021/09/05 01:21:39;;;;;;;17.27;13.27;;;11.30;99.90;;;;;;5072637;28;20311;-69
2021/09/05 01:24:09;;;;;;;17.17;11.93;;;11.40;99.90;;;;;;5072421;28;20203;-69
2021/09/05 01:26:40;;;;;;;15.40;12.17;;;11.30;99.90;;;;;;5072704;28;20204;-70
2021/09/05 01:29:10;;;;;;;15.87;12.20;;;11.20;99.90;;;;;;5072741;28;20264;-70
2021/09/05 01:31:40;;;;;;;16.20;12.47;;;11.20;99.90;;;;;;5072476;28;20211;-69
2021/09/05 01:34:09;;;;;;;15.40;13.43;;;11.20;99.90;;;;;;5072431;28;20280;-70
2021/09/05 01:36:38;;;;;;;16.43;13.03;;;11.20;99.90;;;;;;5072544;28;20187;-70
2021/09/05 01:39:08;;;;;;;17.23;14.37;;;11.00;99.90;;;;;;5072358;28;20204;-70
2021/09/05 01:41:36;;;;;;;19.30;15.87;;;11.00;99.90;;;;;;5072438;28;20327;-69
2021/09/05 01:44:06;;;;;;;21.43;16.03;;;11.00;99.90;;;;;;5072449;28;20299;-70
2021/09/05 01:46:36;;;;;;;23.50;18.37;;;11.00;99.90;;;;;;5072423;28;20910;-70
2021/09/05 01:49:04;;;;;;;23.00;18.23;;;11.00;99.90;;;;;;5072457;28;20300;-70
2021/09/05 01:51:33;;;;;;;21.67;17.90;;;11.00;99.90;;;;;;5072320;28;20201;-70
2021/09/05 01:54:02;;;;;;;28.80;20.70;;;11.00;99.90;;;;;;5071990;28;20649;-70
2021/09/05 01:56:31;;;;;;;28.23;22.07;;;11.00;99.90;;;;;;5072512;28;20197;-70
2021/09/05 01:58:59;;;;;;;25.40;20.83;;;11.00;99.90;;;;;;5072246;28;20196;-70
2021/09/05 02:01:29;;;;;;;26.70;21.17;;;11.00;99.90;;;;;;5072216;28;20304;-69
2021/09/05 02:03:59;;;;;;;25.40;20.73;;;11.00;99.90;;;;;;5072645;28;20247;-70
2021/09/05 02:06:28;;;;;;;25.63;20.40;;;11.00;99.90;;;;;;5072279;28;20307;-70
2021/09/05 02:08:55;;;;;;;27.47;21.03;;;11.00;99.90;;;;;;5071951;28;20283;-70
2021/09/05 02:11:23;;;;;;;28.23;20.93;;;10.90;99.90;;;;;;5072257;28;20193;-70
2021/09/05 02:13:51;;;;;;;26.80;21.00;;;11.00;99.90;;;;;;5071904;28;20204;-69
2021/09/05 02:16:19;;;;;;;26.57;20.60;;;11.00;99.90;;;;;;5072236;28;20201;-70
2021/09/05 02:18:48;;;;;;;26.27;20.60;;;11.00;99.90;;;;;;5072108;28;20251;-70
2021/09/05 02:21:17;;;;;;;24.97;20.37;;;11.00;99.90;;;;;;5071980;28;20315;-70
2021/09/05 02:23:45;;;;;;;25.00;19.90;;;11.00;99.90;;;;;;5071738;28;20696;-70
2021/09/05 02:26:13;;;;;;;24.87;20.10;;;11.00;99.90;;;;;;5072237;28;20304;-70
2021/09/05 02:28:40;;;;;;;25.77;20.50;;;10.90;99.90;;;;;;5071822;28;20282;-70
2021/09/05 02:31:08;;;;;;;22.80;19.03;;;11.00;99.90;;;;;;5072090;28;20200;-70
2021/09/05 02:33:36;;;;;;;23.80;19.63;;;10.90;99.90;;;;;;5072153;28;20291;-71
2021/09/05 02:36:04;;;;;;;24.53;19.73;;;10.90;99.90;;;;;;5071545;28;20327;-70
2021/09/05 02:38:34;;;;;;;25.07;19.07;;;10.90;99.90;;;;;;5071779;28;20295;-69
2021/09/05 02:41:02;;;;;;;22.37;18.20;;;10.90;99.90;;;;;;5071796;28;20747;-71
2021/09/05 02:43:29;;;;;;;23.23;18.87;;;10.90;99.90;;;;;;5074192;28;20328;-70
2021/09/05 02:45:57;;;;;;;24.77;19.33;;;10.90;99.90;;;;;;5075441;28;20204;-69
2021/09/05 02:48:25;;;;;;;24.57;19.33;;;10.90;99.90;;;;;;5075578;28;20228;-70
2021/09/05 02:50:53;;;;;;;23.70;18.30;;;10.90;99.90;;;;;;5075274;28;20207;-69
2021/09/05 02:53:21;;;;;;;24.40;19.90;;;10.90;99.90;;;;;;5074764;28;20695;-70
2021/09/05 02:55:50;;;;;;;25.40;19.97;;;10.80;99.90;;;;;;5075486;28;20205;-70
2021/09/05 02:58:18;;;;;;;24.50;19.37;;;10.80;99.90;;;;;;5075069;28;20291;-70
2021/09/05 03:00:46;;;;;;;24.10;20.40;;;10.80;99.90;;;;;;5075022;28;20299;-69
2021/09/05 03:03:14;;;;;;;24.90;19.40;;;10.70;99.90;;;;;;5075083;28;20221;-69
2021/09/05 03:05:42;;;;;;;24.00;20.07;;;10.70;99.90;;;;;;5075080;28;20205;-70
2021/09/05 03:08:10;;;;;;;24.67;19.70;;;10.80;99.90;;;;;;5074825;28;20228;-70
2021/09/05 03:10:38;;;;;;;23.73;19.43;;;10.80;99.90;;;;;;5074986;28;20192;-70
2021/09/05 03:13:07;;;;;;;25.23;19.60;;;10.70;99.90;;;;;;5074677;28;20291;-71
2021/09/05 03:15:35;;;;;;;28.10;21.57;;;10.70;99.90;;;;;;5075146;28;20294;-70
2021/09/05 03:18:03;;;;;;;27.63;21.40;;;10.60;99.90;;;;;;5075115;28;20203;-70
2021/09/05 03:20:34;;;;;;;25.33;20.93;;;10.60;99.90;;;;;;5074608;28;20231;-70
2021/09/05 03:23:02;;;;;;;24.20;21.33;;;10.60;99.90;;;;;;5074154;28;20227;-70
2021/09/05 03:25:30;;;;;;;26.77;20.83;;;10.60;99.90;;;;;;5074599;28;20665;-70
2021/09/05 03:27:58;;;;;;;24.73;20.83;;;10.60;99.90;;;;;;5074679;28;20200;-70
2021/09/05 03:30:27;;;;;;;22.33;19.90;;;10.50;99.90;;;;;;5074461;28;20247;-69
2021/09/05 03:32:55;;;;;;;23.60;19.93;;;10.60;99.90;;;;;;5074757;28;20192;-69
2021/09/05 03:35:23;;;;;;;21.73;19.13;;;10.50;99.90;;;;;;5074175;28;20228;-70
2021/09/05 03:37:51;;;;;;;22.50;20.10;;;10.50;99.90;;;;;;5074054;28;20299;-70
2021/09/05 03:40:19;;;;;;;20.50;18.33;;;10.40;99.90;;;;;;5074648;28;20585;-69
2021/09/05 03:42:46;;;;;;;24.77;20.57;;;10.40;99.90;;;;;;5074266;28;20227;-70
2021/09/05 03:45:14;;;;;;;22.67;19.77;;;10.40;99.90;;;;;;5074556;28;20246;-70
2021/09/05 03:47:43;;;;;;;22.10;19.27;;;10.50;99.90;;;;;;5074431;28;20569;-70
2021/09/05 03:50:11;;;;;;;21.73;19.43;;;10.50;99.90;;;;;;5074024;28;20220;-70
2021/09/05 03:52:39;;;;;;;21.17;18.73;;;10.40;99.90;;;;;;5073951;28;20284;-70
2021/09/05 03:55:08;;;;;;;20.77;18.37;;;10.40;99.90;;;;;;5074279;28;20200;-70
2021/09/05 03:57:36;;;;;;;22.43;20.07;;;10.40;99.90;;;;;;5074255;28;20209;-70
2021/09/05 04:00:05;;;;;;;22.40;20.03;;;10.40;99.90;;;;;;5074045;28;20201;-70
2021/09/05 04:02:33;;;;;;;23.13;19.17;;;10.40;99.90;;;;;;5074123;28;20216;-70
2021/09/05 04:05:02;;;;;;;21.80;19.20;;;10.30;99.90;;;;;;5073931;28;20204;-69
2021/09/05 04:07:34;;;;;;;21.40;19.20;;;10.30;99.90;;;;;;5073757;28;20185;-70
2021/09/05 04:10:11;;;;;;;20.07;17.97;;;10.30;99.90;;;;;;5074001;28;20578;-70
2021/09/05 04:12:40;;;;;;;22.20;18.17;;;10.30;99.90;;;;;;5068481;28;20267;-70
2021/09/05 04:15:09;;;;;;;21.60;19.30;;;10.30;99.90;;;;;;5073261;28;20255;-69
2021/09/05 04:17:37;;;;;;;20.20;18.00;;;10.30;99.90;;;;;;5070838;28;20203;-70
2021/09/05 04:20:07;;;;;;;19.90;17.80;;;10.30;99.90;;;;;;5073608;28;20247;-71
2021/09/05 04:22:35;;;;;;;20.47;18.27;;;10.20;99.90;;;;;;5073500;28;20209;-70
2021/09/05 04:25:03;;;;;;;20.63;18.50;;;10.20;99.90;;;;;;5073197;28;20205;-70
2021/09/05 04:27:32;;;;;;;20.00;17.90;;;10.20;99.90;;;;;;5073747;28;20615;-69
2021/09/05 04:30:00;;;;;;;22.33;18.43;;;10.10;99.90;;;;;;5073161;28;20736;-70
2021/09/05 04:32:28;;;;;;;20.10;17.93;;;10.10;99.90;;;;;;5073579;28;20205;-69
2021/09/05 04:34:56;;;;;;;19.97;17.60;;;10.20;99.90;;;;;;5072987;28;20323;-69
2021/09/05 04:37:25;;;;;;;19.47;17.37;;;10.20;99.90;;;;;;5073276;28;20207;-70
2021/09/05 04:39:53;;;;;;;21.00;18.07;;;10.10;99.90;;;;;;5073515;28;20292;-69
2021/09/05 04:42:21;;;;;;;19.70;17.60;;;10.10;99.90;;;;;;5073176;28;20627;-69
2021/09/05 04:44:52;;;;;;;22.50;19.30;;;10.20;99.90;;;;;;5073625;28;20201;-70
2021/09/05 04:47:21;;;;;;;22.83;18.80;;;10.10;99.90;;;;;;5073457;28;20236;-70
2021/09/05 04:49:49;;;;;;;24.50;18.60;;;10.10;99.90;;;;;;5073739;28;20208;-70
2021/09/05 04:52:16;;;;;;;24.97;19.67;;;10.20;99.90;;;;;;5073559;28;20208;-70
2021/09/05 04:54:46;;;;;;;24.80;19.87;;;10.20;99.90;;;;;;5073443;28;20665;-70
2021/09/05 04:57:13;;;;;;;24.10;19.60;;;10.20;99.90;;;;;;5073551;28;20201;-71
2021/09/05 04:59:41;;;;;;;20.67;17.90;;;10.30;99.90;;;;;;5073145;28;20668;-69
2021/09/05 05:02:09;;;;;;;23.47;17.77;;;10.30;99.90;;;;;;5073662;28;20201;-69
2021/09/05 05:04:37;;;;;;;23.53;18.47;;;10.30;99.90;;;;;;5073148;28;20229;-69
2021/09/05 05:07:06;;;;;;;22.60;18.03;;;10.30;99.90;;;;;;5073208;28;20197;-71
2021/09/05 05:09:34;;;;;;;22.13;17.40;;;10.30;99.90;;;;;;5073459;28;20308;-71
2021/09/05 05:12:03;;;;;;;21.83;18.83;;;10.30;99.90;;;;;;5073208;28;20219;-70
2021/09/05 05:14:31;;;;;;;22.30;18.27;;;10.30;99.90;;;;;;5073410;28;20197;-70
2021/09/05 05:16:59;;;;;;;22.03;18.43;;;10.30;99.90;;;;;;5073258;28;20657;-70
2021/09/05 05:19:27;;;;;;;20.63;18.07;;;10.40;99.90;;;;;;5073372;28;20296;-70
2021/09/05 05:21:55;;;;;;;24.00;18.87;;;10.40;99.90;;;;;;5072940;28;20232;-70
2021/09/05 05:24:22;;;;;;;22.13;17.47;;;10.40;99.90;;;;;;5072730;28;20212;-69
2021/09/05 05:26:50;;;;;;;20.00;17.70;;;10.50;99.90;;;;;;5072578;28;20563;-70
2021/09/05 05:29:19;;;;;;;23.97;20.47;;;10.60;99.90;;;;;;5072284;28;20230;-70
2021/09/05 05:31:47;;;;;;;24.07;20.40;;;10.70;99.90;;;;;;5073067;28;20209;-68
2021/09/05 05:34:15;;;;;;;22.70;19.23;;;10.80;99.90;;;;;;5072979;28;20567;-69
2021/09/05 05:36:43;;;;;;;22.07;19.03;;;10.90;99.90;;;;;;5072709;28;20273;-69
2021/09/05 05:39:11;;;;;;;23.87;19.77;;;11.00;99.90;;;;;;5073135;28;20201;-69
2021/09/05 05:41:39;;;;;;;22.90;18.87;;;11.10;99.90;;;;;;5072451;28;20303;-70
2021/09/05 05:44:07;;;;;;;21.67;18.60;;;11.20;99.90;;;;;;5072745;28;20323;-70
2021/09/05 05:46:39;;;;;;;24.03;19.67;;;11.30;99.90;;;;;;5073234;28;20189;-70
2021/09/05 05:49:07;;;;;;;22.60;18.75;;;11.40;99.90;;;;;;5072889;28;20642;-70
2021/09/05 05:51:35;;;;;;;23.30;19.20;;;11.50;99.90;;;;;;5072060;28;20690;-69
2021/09/05 05:54:02;;;;;;;23.70;18.10;;;11.60;99.90;;;;;;5072779;28;20201;-68
2021/09/05 05:56:30;;;;;;;22.23;18.60;;;11.70;99.90;;;;;;5072604;28;20564;-70
2021/09/05 05:58:58;;;;;;;21.38;16.67;;;11.80;99.90;;;;;;5072669;28;20200;-70
2021/09/05 06:01:26;;;;;;;20.33;16.50;;;11.90;99.90;;;;;;5072414;28;20204;-70
2021/09/05 06:03:56;;;;;;;23.00;17.48;;;12.00;99.90;;;;;;5072513;28;20220;-70
2021/09/05 06:06:23;;;;;;;22.35;16.00;;;12.20;99.90;;;;;;5072439;28;20308;-70
2021/09/05 06:08:51;;;;;;;22.65;17.42;;;12.30;99.90;;;;;;5072649;28;20223;-69
2021/09/05 06:11:19;;;;;;;19.15;16.05;;;12.50;99.90;;;;;;5072774;28;20212;-69
2021/09/05 06:13:47;;;;;;;22.48;17.35;;;12.70;99.90;;;;;;5072357;28;20197;-70
2021/09/05 06:16:15;;;;;;;19.67;16.05;;;12.80;99.90;;;;;;5072456;28;20204;-69
2021/09/05 06:18:43;;;;;;;20.42;16.63;;;12.80;99.90;;;;;;5075571;28;20586;-68
2021/09/05 06:21:12;;;;;;;19.65;16.15;;;13.00;99.90;;;;;;5076194;28;20228;-70
2021/09/05 06:23:40;;;;;;;19.05;15.63;;;13.10;99.90;;;;;;5076246;28;20324;-69
2021/09/05 06:26:08;;;;;;;21.23;16.17;;;13.20;99.90;;;;;;5076195;28;20283;-68
2021/09/05 06:28:36;;;;;;;19.98;16.02;;;13.30;99.90;;;;;;5076091;28;20196;-69
2021/09/05 06:31:04;;;;;;;20.63;16.10;;;13.50;99.90;;;;;;5076148;28;20231;-70
2021/09/05 06:33:32;;;;;;;17.50;13.73;;;13.60;99.90;;;;;;5076068;28;20201;-69
2021/09/05 06:36:00;;;;;;;18.20;14.48;;;13.60;99.90;;;;;;5075254;28;20229;-70
2021/09/05 06:38:30;;;;;;;20.67;15.70;;;13.70;99.90;;;;;;5075857;28;20211;-71
2021/09/05 06:40:58;;;;;;;22.42;15.98;;;13.90;99.90;;;;;;5075789;28;20205;-68
2021/09/05 06:43:25;;;;;;;20.75;16.02;;;14.10;99.90;;;;;;5075829;28;20731;-69
2021/09/05 06:45:53;;;;;;;20.27;14.77;;;14.10;99.90;;;;;;5077817;28;20205;-68
2021/09/05 06:48:41;;;;;;;16.70;13.98;;;14.20;99.90;;;;;;5081848;28;20200;-69
2021/09/05 06:51:09;;;;;;;16.55;13.43;;;14.20;99.90;;;;;;5080806;28;20292;-66
2021/09/05 06:53:38;;;;;;;16.98;13.95;;;14.20;99.90;;;;;;5076304;28;20200;-70
2021/09/05 06:56:06;;;;;;;20.98;15.32;;;14.20;99.90;;;;;;5075934;28;20228;-70
2021/09/05 06:58:34;;;;;;;18.98;14.80;;;14.30;99.90;;;;;;5075512;28;20205;-69
2021/09/05 07:01:02;;;;;;;19.48;15.05;;;14.40;99.90;;;;;;5075449;28;20201;-70
2021/09/05 07:03:31;;;;;;;20.60;14.75;;;14.50;99.90;;;;;;5075475;28;20208;-69
2021/09/05 07:05:59;;;;;;;23.98;16.67;;;14.60;99.90;;;;;;5075198;28;20212;-69
2021/09/05 07:08:27;;;;;;;23.42;17.30;;;14.70;99.90;;;;;;5075265;28;20629;-68
2021/09/05 07:10:56;;;;;;;19.55;15.13;;;14.80;99.90;;;;;;5075455;28;20205;-69
2021/09/05 07:13:24;;;;;;;20.55;15.43;;;14.80;99.90;;;;;;5075433;28;20252;-70
2021/09/05 07:15:51;;;;;;;22.83;14.95;;;14.80;99.90;;;;;;5075543;28;20773;-70
2021/09/05 07:18:23;;;;;;;21.65;15.05;;;14.80;99.90;;;;;;5075402;28;20232;-70
2021/09/05 07:20:51;;;;;;;20.08;15.63;;;14.80;99.90;;;;;;5074987;28;20279;-69
2021/09/05 07:23:19;;;;;;;24.17;16.20;;;14.90;99.90;;;;;;5074634;28;20295;-71
2021/09/05 07:25:48;;;;;;;22.73;15.77;;;14.90;99.90;;;;;;5074542;28;20225;-69
2021/09/05 07:28:17;;;;;;;23.48;15.70;;;14.90;99.90;;;;;;5074211;28;20216;-69
2021/09/05 07:30:45;;;;;;;23.63;15.93;;;15.10;99.90;;;;;;5074506;28;20207;-71
2021/09/05 07:33:13;;;;;;;26.70;15.55;;;15.20;99.90;;;;;;5074358;28;20209;-71
2021/09/05 07:35:41;;;;;;;22.90;16.23;;;15.30;99.90;;;;;;5073612;28;20312;-71
2021/09/05 07:38:09;;;;;;;20.33;14.30;;;15.40;99.90;;;;;;5074303;28;20287;-71
2021/09/05 07:40:36;;;;;;;20.90;14.63;;;15.50;99.90;;;;;;5074374;28;20196;-70
2021/09/05 07:43:04;;;;;;;18.20;13.25;;;15.50;99.90;;;;;;5074421;28;20197;-71
2021/09/05 07:45:34;;;;;;;19.33;13.45;;;15.40;99.90;;;;;;5074098;28;20304;-70
2021/09/05 07:48:02;;;;;;;17.38;13.70;;;15.30;99.90;;;;;;5074314;28;20200;-70
2021/09/05 07:50:30;;;;;;;15.93;12.25;;;15.20;99.90;;;;;;5073902;28;20295;-71
2021/09/05 07:52:58;;;;;;;16.00;12.27;;;15.20;99.90;;;;;;5073734;28;20299;-70
2021/09/05 07:55:25;;;;;;;18.08;11.98;;;15.20;99.90;;;;;;5073654;28;20768;-70
2021/09/05 07:57:53;;;;;;;15.82;11.70;;;15.30;99.90;;;;;;5073875;28;20207;-69
2021/09/05 08:00:21;;;;;;;16.48;12.27;;;15.50;99.90;;;;;;5074054;28;20228;-70
2021/09/05 08:02:50;;;;;;;14.95;11.20;;;15.60;99.90;;;;;;5074155;28;20201;-70
2021/09/05 08:05:19;;;;;;;14.13;10.98;;;15.70;99.90;;;;;;5073484;28;20213;-70
2021/09/05 08:07:46;;;;;;;14.48;10.73;;;15.90;99.90;;;;;;5073925;28;20222;-70
2021/09/05 08:10:14;;;;;;;15.93;10.40;;;16.20;99.90;;;;;;5073615;28;20291;-69
2021/09/05 08:12:42;;;;;;;12.18;10.65;;;16.40;99.90;;;;;;5073877;28;20224;-70
2021/09/05 08:15:11;;;;;;;14.10;10.20;;;16.50;99.90;;;;;;5073370;28;20261;-70
2021/09/05 08:17:38;;;;;;;15.27;11.95;;;16.60;99.90;;;;;;5075530;28;20296;-70
2021/09/05 08:20:09;;;;;;;12.23;9.82;;;16.80;99.90;;;;;;5069373;28;20189;-70
2021/09/05 08:22:38;;;;;;;17.73;11.32;;;16.90;99.90;;;;;;5073505;28;20185;-70
2021/09/05 08:25:06;;;;;;;14.20;11.20;;;17.00;99.90;;;;;;5072458;28;20227;-70
2021/09/05 08:27:34;;;;;;;14.98;11.57;;;17.00;99.90;;;;;;5073521;28;20201;-69
2021/09/05 08:30:02;;;;;;;18.25;11.77;;;16.90;99.90;;;;;;5073367;28;20299;-71
2021/09/05 08:32:31;;;;;;;13.13;10.90;;;16.90;99.90;;;;;;5072629;28;20228;-70
2021/09/05 08:34:59;;;;;;;14.88;10.20;;;17.10;99.90;;;;;;5072574;28;20256;-69
2021/09/05 08:37:28;;;;;;;15.90;11.32;;;17.30;99.90;;;;;;5073548;28;20235;-70
2021/09/05 08:39:55;;;;;;;15.85;12.10;;;17.40;99.90;;;;;;5072013;28;20232;-70
2021/09/05 08:42:24;;;;;;;15.27;11.45;;;17.60;99.90;;;;;;5073235;28;20636;-69
2021/09/05 08:44:52;;;;;;;13.88;11.25;;;17.60;99.90;;;;;;5072994;28;20222;-70
2021/09/05 08:47:20;;;;;;;17.00;11.85;;;17.70;99.90;;;;;;5072899;28;20657;-70
2021/09/05 08:49:50;;;;;;;16.60;11.63;;;17.80;99.90;;;;;;5072914;28;20598;-70
2021/09/05 08:52:18;;;;;;;16.33;12.20;;;17.90;99.90;;;;;;5073006;28;20294;-70
2021/09/05 08:54:47;;;;;;;17.05;12.38;;;18.00;99.90;;;;;;5072753;28;20201;-70
2021/09/05 08:57:15;;;;;;;17.52;13.38;;;19.20;99.90;;;;;;5072273;28;20200;-70
2021/09/05 08:59:43;;;;;;;13.57;11.65;;;18.10;99.90;;;;;;5071947;28;20205;-69
2021/09/05 09:02:11;;;;;;;16.55;12.30;;;18.20;99.90;;;;;;5071573;28;20189;-71
2021/09/05 09:04:41;;;;;;;15.23;11.93;;;18.30;99.90;;;;;;5069815;28;20204;-70
2021/09/05 09:07:10;;;;;;;22.15;14.20;;;18.20;99.90;;;;;;5071991;28;20280;-70
2021/09/05 09:09:43;;;;;;;17.92;14.00;;;18.10;99.90;;;;;;5072167;28;20219;-70
2021/09/05 09:12:12;;;;;;;18.02;12.77;;;18.10;99.90;;;;;;5072238;28;20272;-70
2021/09/05 09:14:42;;;;;;;15.65;12.68;;;18.10;99.90;;;;;;5071478;28;20197;-69
2021/09/05 09:17:11;;;;;;;15.95;13.05;;;18.20;99.90;;;;;;5069202;28;20188;-69
2021/09/05 09:19:44;;;;;;;18.67;12.68;;;18.40;99.90;;;;;;5071326;28;20201;-69
2021/09/05 09:22:17;;;;;;;16.00;11.63;;;18.40;99.90;;;;;;5072051;28;20177;-69
2021/09/05 09:24:46;;;;;;;17.85;12.27;;;18.50;99.90;;;;;;5052386;28;20186;-69
2021/09/05 09:27:16;;;;;;;18.40;12.60;;;18.60;99.90;;;;;;5068090;28;20224;-68
2021/09/05 09:29:44;;;;;;;15.45;12.05;;;18.80;99.90;;;;;;5071366;28;20729;-69
2021/09/05 09:32:19;;;;;;;15.90;12.20;;;19.00;99.90;;;;;;5071167;28;20276;-69
2021/09/05 09:34:48;;;;;;;15.25;11.02;;;19.00;99.90;;;;;;5068310;28;20808;-70
2021/09/05 09:37:18;;;;;;;17.52;12.98;;;19.00;99.90;;;;;;5071605;28;20189;-71
2021/09/05 09:39:48;;;;;;;16.00;12.68;;;19.10;99.90;;;;;;5052715;28;20185;-70
2021/09/05 09:42:37;;;;;;;15.15;12.13;;;19.00;99.90;;;;;;5060291;28;20236;-70
2021/09/05 09:45:12;;;;;;;18.25;13.20;;;18.90;99.90;;;;;;5069605;28;20220;-70
2021/09/05 09:47:44;;;;;;;15.27;12.27;;;18.70;99.90;;;;;;5069186;28;20264;-69
2021/09/05 09:50:13;;;;;;;16.88;12.40;;;18.50;99.90;;;;;;5071742;28;20189;-70
2021/09/05 09:52:41;;;;;;;18.83;12.93;;;18.50;99.90;;;;;;5075122;28;20254;-68
2021/09/05 09:55:09;;;;;;;16.98;12.93;;;18.60;99.90;;;;;;5076714;28;20646;-68
2021/09/05 09:57:39;;;;;;;16.60;12.90;;;18.60;99.90;;;;;;5076438;28;20682;-69
2021/09/05 10:00:08;;;;;;;19.27;13.52;;;18.40;99.90;;;;;;5076505;28;20295;-69
2021/09/05 10:02:44;;;;;;;18.08;13.63;;;18.50;99.90;;;;;;5076490;28;20184;-69
2021/09/05 10:05:13;;;;;;;16.92;12.98;;;18.50;99.90;;;;;;5076240;28;20185;-68
2021/09/05 10:07:42;;;;;;;19.08;13.48;;;18.40;99.90;;;;;;5076578;28;20224;-68
2021/09/05 10:10:12;;;;;;;18.60;13.63;;;18.40;99.90;;;;;;5075963;28;20200;-68
2021/09/05 10:12:42;;;;;;;18.85;13.43;;;18.30;99.90;;;;;;5075944;28;20208;-68
2021/09/05 10:15:11;;;;;;;18.48;13.38;;;18.30;99.90;;;;;;5076239;28;20185;-68
2021/09/05 10:17:40;;;;;;;20.85;14.65;;;18.10;99.90;;;;;;5076782;28;20232;-68
2021/09/05 10:20:09;;;;;;;21.20;15.23;;;18.10;99.90;;;;;;5076451;28;20235;-68
2021/09/05 10:22:37;;;;;;;19.23;14.65;;;18.10;99.90;;;;;;5076425;28;20353;-69
2021/09/05 10:25:07;;;;;;;18.27;13.43;;;18.10;99.90;;;;;;5076201;28;20300;-68
2021/09/05 10:27:37;;;;;;;17.17;13.43;;;18.20;99.90;;;;;;5076163;28;20217;-68
2021/09/05 10:30:14;;;;;;;20.30;13.70;;;18.20;99.90;;;;;;5075940;28;20224;-68
2021/09/05 10:32:47;;;;;;;18.73;14.32;;;18.30;99.90;;;;;;5075977;28;20271;-68
2021/09/05 10:35:36;;;;;;;20.42;14.48;;;18.20;99.90;;;;;;5075623;28;20587;-68
2021/09/05 10:38:21;;;;;;;20.60;14.73;;;18.20;99.90;;;;;;5075858;28;20196;-67
2021/09/05 10:40:50;;;;;;;19.58;14.93;;;18.30;99.90;;;;;;5076513;28;20274;-69
2021/09/05 10:43:19;;;;;;;23.50;15.23;;;18.50;99.90;;;;;;5075944;28;20296;-69
2021/09/05 10:45:50;;;;;;;19.90;14.90;;;18.60;99.90;;;;;;5075757;28;20197;-69
2021/09/05 10:48:33;;;;;;;22.38;15.68;;;18.70;99.90;;;;;;5075262;28;20551;-68
2021/09/05 10:51:10;;;;;;;21.52;15.02;;;18.80;99.90;;;;;;5075786;28;20191;-68
2021/09/05 10:53:49;;;;;;;19.35;14.25;;;19.00;99.90;;;;;;5075514;28;20201;-69
2021/09/05 10:56:19;;;;;;;17.90;14.60;;;19.10;99.90;;;;;;5071898;28;20602;-69
2021/09/05 10:58:49;;;;;;;19.45;14.68;;;19.40;99.90;;;;;;5075029;28;20277;-68
2021/09/05 11:01:30;;;;;;;21.40;14.43;;;19.30;99.90;;;;;;5075893;28;20181;-68
2021/09/05 11:04:28;;;;;;;18.63;14.52;;;19.50;99.90;;;;;;5074698;28;20224;-67
2021/09/05 11:07:00;;;;;;;21.80;14.88;;;19.50;99.90;;;;;;5075477;28;20310;-69
2021/09/05 11:09:47;;;;;;;21.40;15.20;;;19.70;99.90;;;;;;5075103;28;20613;-69
2021/09/05 11:12:41;;;;;;;21.20;16.55;;;19.80;99.90;;;;;;5075207;28;20375;-68
2021/09/05 11:15:15;;;;;;;9.63;7.32;;;19.70;99.90;;;;;;5074804;28;20704;-68
2021/09/05 11:17:56;;;;;;;16.25;12.13;;;20.00;99.90;;;;;;5074404;28;20192;-69
2021/09/05 11:20:24;;;;;;;16.30;13.85;;;20.40;99.90;;;;;;5071623;28;20299;-69
2021/09/05 11:22:56;;;;;;;18.15;13.00;;;20.50;99.90;;;;;;5075022;28;20280;-70
2021/09/05 11:25:26;;;;;;;20.90;13.73;;;20.60;99.90;;;;;;5075477;28;20189;-69
2021/09/05 11:28:03;;;;;;;13.25;11.18;;;20.60;99.90;;;;;;5075494;28;20220;-70
2021/09/05 11:30:32;;;;;;;17.70;14.73;;;20.70;99.90;;;;;;5075914;28;20268;-70
2021/09/05 11:33:04;;;;;;;19.02;13.98;;;20.80;99.90;;;;;;5073969;28;20288;-70
2021/09/05 11:35:43;;;;;;;14.80;11.48;;;20.70;99.90;;;;;;5054353;28;20229;-69
2021/09/05 11:38:13;;;;;;;18.88;13.13;;;20.60;99.90;;;;;;5054990;28;20277;-71
2021/09/05 11:40:46;;;;;;;18.65;14.02;;;20.60;99.90;;;;;;5054774;28;20547;-68
2021/09/05 11:43:28;;;;;;;15.85;12.80;;;20.60;99.90;;;;;;5080388;28;20279;-68
2021/09/05 11:45:56;;;;;;;18.80;12.27;;;20.50;99.90;;;;;;5076140;28;20271;-68
2021/09/05 11:48:28;;;;;;;19.40;15.65;;;20.50;99.90;;;;;;5074363;28;20224;-68
2021/09/05 11:51:02;;;;;;;17.02;13.70;;;20.30;99.90;;;;;;5073201;28;21544;-71
2021/09/05 11:53:29;;;;;;;16.02;11.77;;;20.40;99.90;;;;;;5072327;28;20195;-69
2021/09/05 11:55:58;;;;;;;20.42;15.55;;;20.40;99.90;;;;;;5074521;28;20204;-67
2021/09/05 11:58:25;;;;;;;18.88;14.40;;;20.40;99.90;;;;;;5074001;28;20243;-68
2021/09/05 12:00:55;;;;;;;15.93;12.73;;;20.50;99.90;;;;;;5073632;28;20197;-69
2021/09/05 12:03:25;;;;;;;22.10;14.25;;;20.50;99.90;;;;;;5071811;28;20201;-70
2021/09/05 12:05:55;;;;;;;16.77;11.98;;;20.40;99.90;;;;;;5073985;28;20207;-70
2021/09/05 12:08:23;;;;;;;17.05;13.18;;;20.50;99.90;;;;;;5073959;28;20313;-68
2021/09/05 12:11:09;;;;;;;18.17;12.57;;;20.60;99.90;;;;;;5073886;28;20295;-68
2021/09/05 12:13:47;;;;;;;18.35;15.15;;;20.60;99.90;;;;;;5073600;28;20596;-68
2021/09/05 12:16:23;;;;;;;18.88;12.48;;;20.50;99.90;;;;;;5072325;28;20200;-69
2021/09/05 12:19:05;;;;;;;14.90;11.55;;;20.50;99.90;;;;;;5071250;28;20688;-70
2021/09/05 12:21:36;;;;;;;20.33;16.02;;;20.70;99.90;;;;;;5072633;28;20207;-68
2021/09/05 12:24:13;;;;;;;21.23;16.60;;;20.80;99.90;;;;;;5070897;28;20216;-68
2021/09/05 12:26:41;;;;;;;18.50;14.30;;;20.80;99.90;;;;;;5073171;28;20273;-68
2021/09/05 12:29:09;;;;;;;17.45;15.32;;;20.80;99.90;;;;;;5073281;28;20192;-69
2021/09/05 12:31:42;;;;;;;16.73;12.52;;;21.00;99.90;;;;;;5073087;28;20243;-67
2021/09/05 12:34:10;;;;;;;14.02;12.00;;;21.00;99.90;;;;;;5070909;28;20648;-69
2021/09/05 12:36:40;;;;;;;18.30;14.60;;;21.10;99.90;;;;;;5072882;28;20242;-70
2021/09/05 12:39:08;;;;;;;18.25;14.25;;;21.30;99.90;;;;;;5073007;28;20188;-68